createdAt,value
2018-12-03T00:00:24.823Z,19.90
2018-12-03T00:02:54.941Z,19.73
2018-12-03T00:05:23.292Z,19.20
2018-12-03T00:07:51.662Z,20.10
2018-12-03T00:10:20.033Z,19.27
2018-12-03T00:12:48.420Z,20.80
2018-12-03T00:15:16.809Z,21.07
2018-12-03T00:17:45.195Z,20.60
2018-12-03T00:20:13.573Z,20.43
2018-12-03T00:22:41.923Z,21.20
2018-12-03T00:25:10.330Z,21.43
2018-12-03T00:27:38.676Z,22.33
2018-12-03T00:30:09.524Z,22.40
2018-12-03T00:32:38.180Z,21.73
2018-12-03T00:35:08.312Z,23.57
2018-12-03T00:37:36.788Z,22.90
2018-12-03T00:40:06.466Z,21.93
2018-12-03T00:42:34.857Z,23.27
2018-12-03T00:45:03.319Z,24.33
2018-12-03T00:47:31.677Z,24.10
2018-12-03T00:50:00.070Z,25.60
2018-12-03T00:52:28.463Z,24.43
2018-12-03T00:54:56.856Z,23.73
2018-12-03T00:57:25.214Z,23.70
2018-12-03T00:59:53.593Z,24.30
2018-12-03T01:02:25.537Z,25.03
2018-12-03T01:04:54.475Z,24.73
2018-12-03T01:07:23.096Z,24.43
2018-12-03T01:09:51.660Z,23.27
2018-12-03T01:12:20.043Z,24.53
2018-12-03T01:14:48.499Z,24.10
2018-12-03T01:17:16.876Z,23.13
2018-12-03T01:19:45.256Z,24.27
2018-12-03T01:22:13.695Z,24.40
2018-12-03T01:24:42.128Z,23.00
2018-12-03T01:27:10.479Z,23.67
2018-12-03T01:29:38.969Z,22.03
2018-12-03T01:32:07.335Z,23.93
2018-12-03T01:34:35.756Z,21.93
2018-12-03T01:37:04.127Z,23.20
2018-12-03T01:39:32.519Z,23.00
2018-12-03T01:42:00.893Z,21.87
2018-12-03T01:44:29.336Z,21.70
2018-12-03T01:46:57.713Z,21.87
2018-12-03T01:49:26.065Z,20.53
2018-12-03T01:51:54.484Z,22.33
2018-12-03T01:54:22.846Z,20.60
2018-12-03T01:56:51.223Z,22.03
2018-12-03T01:59:19.575Z,21.63
2018-12-03T02:01:47.994Z,21.90
2018-12-03T02:04:16.380Z,21.40
2018-12-03T02:06:44.725Z,21.93
2018-12-03T02:09:13.111Z,21.40
2018-12-03T02:11:41.515Z,23.07
2018-12-03T02:14:09.879Z,21.90
2018-12-03T02:16:38.261Z,22.03
2018-12-03T02:19:06.637Z,22.00
2018-12-03T02:21:35.031Z,21.20
2018-12-03T02:24:03.376Z,22.00
2018-12-03T02:26:31.756Z,21.70
2018-12-03T02:29:00.101Z,23.37
2018-12-03T02:31:28.484Z,23.73
2018-12-03T02:33:56.841Z,23.80
2018-12-03T02:36:25.247Z,24.67
2018-12-03T02:38:53.795Z,23.47
2018-12-03T02:41:22.164Z,24.60
2018-12-03T02:43:50.524Z,24.57
2018-12-03T02:46:18.904Z,25.33
2018-12-03T02:48:47.280Z,25.53
2018-12-03T02:51:15.676Z,24.97
2018-12-03T02:53:44.026Z,26.03
2018-12-03T02:56:12.455Z,25.27
2018-12-03T02:58:40.832Z,27.30
2018-12-03T03:01:09.481Z,27.23
2018-12-03T03:03:37.849Z,25.97
2018-12-03T03:06:06.357Z,27.73
2018-12-03T03:08:34.738Z,27.77
2018-12-03T03:11:03.242Z,27.43
2018-12-03T03:13:31.604Z,29.43
2018-12-03T03:15:59.972Z,28.40
2018-12-03T03:18:28.344Z,27.23
2018-12-03T03:20:56.727Z,28.03
2018-12-03T03:23:25.065Z,27.17
2018-12-03T03:25:53.442Z,25.83
2018-12-03T03:28:21.791Z,28.43
2018-12-03T03:30:50.172Z,27.67
2018-12-03T03:33:18.529Z,26.00
2018-12-03T03:35:46.913Z,26.73
2018-12-03T03:38:15.259Z,27.17
2018-12-03T03:40:43.645Z,27.03
2018-12-03T03:43:12.011Z,26.67
2018-12-03T03:45:40.388Z,25.33
2018-12-03T03:48:08.760Z,28.20
2018-12-03T03:50:37.158Z,27.93
2018-12-03T03:53:05.823Z,26.70
2018-12-03T03:55:34.470Z,28.83
2018-12-03T03:58:02.859Z,27.73
2018-12-03T04:00:31.214Z,27.43
2018-12-03T04:02:59.586Z,28.23
2018-12-03T04:05:27.931Z,27.93
2018-12-03T04:07:56.308Z,27.60
2018-12-03T04:10:24.651Z,28.47
2018-12-03T04:12:53.030Z,28.30
2018-12-03T04:15:22.127Z,28.50
2018-12-03T04:17:50.527Z,29.27
2018-12-03T04:20:20.061Z,27.37
2018-12-03T04:22:52.619Z,26.63
2018-12-03T04:25:20.952Z,27.17
2018-12-03T04:27:49.355Z,27.13
2018-12-03T04:30:20.573Z,27.37
2018-12-03T04:32:49.027Z,24.97
2018-12-03T04:35:17.391Z,24.57
2018-12-03T04:37:45.837Z,26.90
2018-12-03T04:40:15.456Z,26.17
2018-12-03T04:42:43.856Z,27.20
2018-12-03T04:45:14.871Z,27.33
2018-12-03T04:47:43.316Z,26.93
2018-12-03T04:50:16.704Z,29.57
2018-12-03T04:52:45.121Z,26.90
2018-12-03T04:55:14.804Z,27.87
2018-12-03T04:57:43.167Z,27.40
2018-12-03T05:00:16.743Z,25.50
2018-12-03T05:02:46.164Z,26.73
2018-12-03T05:05:14.534Z,26.90
2018-12-03T05:07:42.925Z,25.70
2018-12-03T05:10:14.304Z,25.40
2018-12-03T05:12:43.420Z,25.67
2018-12-03T05:15:12.641Z,24.50
2018-12-03T05:17:41.225Z,24.63
2018-12-03T05:20:11.962Z,25.93
2018-12-03T05:22:40.387Z,23.80
2018-12-03T05:25:09.872Z,25.67
2018-12-03T05:27:38.308Z,23.43
2018-12-03T05:30:09.418Z,23.80
2018-12-03T05:32:37.844Z,24.77
2018-12-03T05:35:08.986Z,23.03
2018-12-03T05:37:37.389Z,24.97
2018-12-03T05:40:09.680Z,23.13
2018-12-03T05:42:38.189Z,24.10
2018-12-03T05:45:07.859Z,22.43
2018-12-03T05:47:36.256Z,25.20
2018-12-03T05:50:06.937Z,21.53
2018-12-03T05:52:36.533Z,23.63
2018-12-03T05:55:06.653Z,21.07
2018-12-03T05:57:35.068Z,21.00
2018-12-03T06:00:03.771Z,22.03
2018-12-03T06:02:32.154Z,22.87
2018-12-03T06:05:00.511Z,21.67
2018-12-03T06:07:28.935Z,23.63
2018-12-03T06:09:57.460Z,24.07
2018-12-03T06:12:25.831Z,21.70
2018-12-03T06:14:54.191Z,22.23
2018-12-03T06:17:22.587Z,21.23
2018-12-03T06:19:50.962Z,24.37
2018-12-03T06:22:19.344Z,24.93
2018-12-03T06:24:47.728Z,23.23
2018-12-03T06:27:16.104Z,23.20
2018-12-03T06:29:44.447Z,28.90
2018-12-03T06:32:12.833Z,25.80
2018-12-03T06:34:41.194Z,26.17
2018-12-03T06:37:09.572Z,27.03
2018-12-03T06:39:37.950Z,24.53
2018-12-03T06:42:06.316Z,25.17
2018-12-03T06:44:34.676Z,22.80
2018-12-03T06:47:03.043Z,17.83
2018-12-03T06:49:31.404Z,15.80
2018-12-03T06:51:59.799Z,15.37
2018-12-03T06:54:28.164Z,15.77
2018-12-03T06:56:56.532Z,13.40
2018-12-03T06:59:24.920Z,14.63
2018-12-03T07:01:53.508Z,11.17
2018-12-03T07:04:21.868Z,9.63
2018-12-03T07:06:50.227Z,8.97
2018-12-03T07:09:18.670Z,11.57
2018-12-03T07:11:47.035Z,10.90
2018-12-03T07:14:15.412Z,10.20
2018-12-03T07:16:43.782Z,11.70
2018-12-03T07:19:12.206Z,12.73
2018-12-03T07:21:40.551Z,12.60
2018-12-03T07:24:09.002Z,10.63
2018-12-03T07:26:37.380Z,11.70
2018-12-03T07:29:06.102Z,12.20
2018-12-03T07:31:34.461Z,11.37
2018-12-03T07:34:03.450Z,10.20
2018-12-03T07:36:31.316Z,9.93
2018-12-03T07:38:59.675Z,11.00
2018-12-03T07:41:28.047Z,10.80
2018-12-03T07:43:56.428Z,11.93
2018-12-03T07:46:24.832Z,12.17
2018-12-03T07:48:53.272Z,12.10
2018-12-03T07:51:21.744Z,14.27
2018-12-03T07:53:50.188Z,15.37
2018-12-03T07:56:18.566Z,14.27
2018-12-03T07:58:46.939Z,14.47
2018-12-03T08:01:16.523Z,15.47
2018-12-03T08:03:45.780Z,14.87
2018-12-03T08:06:14.159Z,15.17
2018-12-03T08:08:42.560Z,16.60
2018-12-03T08:11:10.948Z,15.97
2018-12-03T08:13:39.339Z,14.10
2018-12-03T08:16:08.752Z,12.83
2018-12-03T08:18:37.149Z,12.43
2018-12-03T08:21:08.214Z,12.47
2018-12-03T08:23:39.757Z,11.83
2018-12-03T08:26:09.596Z,11.37
2018-12-03T08:28:38.018Z,12.93
2018-12-03T08:31:06.650Z,12.33
2018-12-03T08:33:35.046Z,14.53
2018-12-03T08:36:03.427Z,13.10
2018-12-03T08:38:31.835Z,13.93
2018-12-03T08:41:04.564Z,14.57
2018-12-03T08:43:33.042Z,15.07
2018-12-03T08:46:02.856Z,15.23
2018-12-03T08:48:34.915Z,16.20
2018-12-03T08:51:03.528Z,16.90
2018-12-03T08:53:31.917Z,16.13
2018-12-03T08:56:00.324Z,16.73
2018-12-03T08:58:28.692Z,16.17
2018-12-03T09:00:57.099Z,15.10
2018-12-03T09:03:28.316Z,11.57
2018-12-03T09:05:56.977Z,9.20
2018-12-03T09:08:26.404Z,10.43
2018-12-03T09:10:55.082Z,7.90
2018-12-03T09:13:24.396Z,9.57
2018-12-03T09:15:55.057Z,9.07
2018-12-03T09:18:23.475Z,7.37
2018-12-03T09:20:51.867Z,6.80
2018-12-03T09:23:20.297Z,6.17
2018-12-03T09:25:48.716Z,6.03
2018-12-03T09:28:17.102Z,5.37
2018-12-03T09:30:45.491Z,6.00
2018-12-03T09:33:13.929Z,5.30
2018-12-03T09:35:42.321Z,5.00
2018-12-03T09:38:10.716Z,5.33
2018-12-03T09:40:39.171Z,6.30
2018-12-03T09:43:07.575Z,4.90
2018-12-03T09:45:35.981Z,4.90
2018-12-03T09:48:04.684Z,5.80
2018-12-03T09:50:33.144Z,4.63
2018-12-03T09:53:01.511Z,6.43
2018-12-03T09:55:31.355Z,5.17
2018-12-03T09:58:10.274Z,4.10
2018-12-03T10:00:37.929Z,4.30
2018-12-03T10:03:10.714Z,4.77
2018-12-03T10:05:44.084Z,5.17
2018-12-03T10:08:12.454Z,5.33
2018-12-03T10:10:44.755Z,4.90
2018-12-03T10:13:13.203Z,5.07
2018-12-03T10:15:41.684Z,4.77
2018-12-03T10:18:10.113Z,5.37
2018-12-03T10:20:42.179Z,7.53
2018-12-03T10:23:08.041Z,4.37
2018-12-03T10:25:35.687Z,5.03
2018-12-03T10:28:07.685Z,4.77
2018-12-03T10:30:36.060Z,4.53
2018-12-03T10:33:04.453Z,4.80
2018-12-03T10:35:34.749Z,5.77
2018-12-03T10:38:10.030Z,6.60
2018-12-03T10:40:41.420Z,6.20
2018-12-03T10:43:10.992Z,7.10
2018-12-03T10:45:39.360Z,5.13
2018-12-03T10:48:07.751Z,4.80
2018-12-03T10:50:36.161Z,5.00
2018-12-03T10:53:04.939Z,5.37
2018-12-03T10:55:33.405Z,5.03
2018-12-03T10:58:01.752Z,4.17
2018-12-03T11:00:35.802Z,3.70
2018-12-03T11:03:09.445Z,4.90
2018-12-03T11:05:43.167Z,4.10
2018-12-03T11:08:11.596Z,4.30
2018-12-03T11:10:40.212Z,4.13
2018-12-03T11:13:08.608Z,5.13
2018-12-03T11:15:37.143Z,4.30
2018-12-03T11:18:07.099Z,4.03
2018-12-03T11:20:35.485Z,4.50
2018-12-03T11:23:03.882Z,4.47
2018-12-03T11:25:34.446Z,4.90
2018-12-03T11:28:04.360Z,3.63
2018-12-03T11:30:32.767Z,4.40
2018-12-03T11:33:01.144Z,5.10
2018-12-03T11:35:31.284Z,5.27
2018-12-03T11:38:36.334Z,5.40
2018-12-03T11:41:04.824Z,5.33
2018-12-03T11:43:33.234Z,4.07
2018-12-03T11:46:01.603Z,5.53
2018-12-03T11:48:29.975Z,6.23
2018-12-03T11:50:58.393Z,5.20
2018-12-03T11:53:26.801Z,4.53
2018-12-03T11:55:55.381Z,4.63
2018-12-03T11:58:23.768Z,4.90
2018-12-03T12:00:52.167Z,4.63
2018-12-03T12:03:20.587Z,5.07
2018-12-03T12:05:49.057Z,4.60
2018-12-03T12:08:17.453Z,5.17
2018-12-03T12:10:45.824Z,4.87
2018-12-03T12:13:14.222Z,4.77
2018-12-03T12:15:42.620Z,4.83
2018-12-03T12:18:10.967Z,4.50
2018-12-03T12:20:39.341Z,4.93
2018-12-03T12:23:07.727Z,4.83
2018-12-03T12:25:36.096Z,4.43
2018-12-03T12:28:04.500Z,4.80
2018-12-03T12:30:32.847Z,4.80
2018-12-03T12:33:01.232Z,4.80
2018-12-03T12:35:29.593Z,4.30
2018-12-03T12:37:58.019Z,4.40
2018-12-03T12:40:26.352Z,5.43
2018-12-03T12:42:54.779Z,5.23
2018-12-03T12:45:28.976Z,4.93
2018-12-03T12:47:57.352Z,5.30
2018-12-03T12:50:25.799Z,4.13
2018-12-03T12:52:54.192Z,4.60
2018-12-03T12:55:22.620Z,5.10
2018-12-03T12:57:51.056Z,6.13
2018-12-03T13:00:19.417Z,5.97
2018-12-03T13:02:50.184Z,5.40
2018-12-03T13:05:18.824Z,5.27
2018-12-03T13:07:47.398Z,4.40
2018-12-03T13:10:16.671Z,4.67
2018-12-03T13:12:47.500Z,5.40
2018-12-03T13:15:16.023Z,6.17
2018-12-03T13:17:46.008Z,5.67
2018-12-03T13:20:15.808Z,6.00
2018-12-03T13:22:44.366Z,6.93
2018-12-03T13:25:14.863Z,6.43
2018-12-03T13:27:43.486Z,6.37
2018-12-03T13:30:14.185Z,5.20
2018-12-03T13:32:42.956Z,6.00
2018-12-03T13:35:18.005Z,5.67
2018-12-03T13:37:46.536Z,5.43
2018-12-03T13:40:16.223Z,5.93
2018-12-03T13:42:45.488Z,5.10
2018-12-03T13:45:15.488Z,6.57
2018-12-03T13:47:43.915Z,6.27
2018-12-03T13:50:14.025Z,6.07
2018-12-03T13:52:42.901Z,7.20
2018-12-03T13:55:13.106Z,6.63
2018-12-03T13:57:41.723Z,5.63
2018-12-03T14:00:15.596Z,6.83
2018-12-03T14:03:47.766Z,6.30
2018-12-03T14:06:25.700Z,6.50
2018-12-03T14:12:17.110Z,6.87
2018-12-03T14:15:31.140Z,7.13
2018-12-03T14:18:34.669Z,7.13
2018-12-03T14:21:13.797Z,6.77
2018-12-03T14:23:43.093Z,6.40
2018-12-03T14:26:11.464Z,7.47
2018-12-03T14:28:39.847Z,8.07
2018-12-03T14:31:08.270Z,8.53
2018-12-03T14:33:36.693Z,9.37
2018-12-03T14:36:05.131Z,6.90
2018-12-03T14:38:33.503Z,6.70
2018-12-03T14:41:01.944Z,6.57
2018-12-03T14:43:30.332Z,8.73
2018-12-03T14:45:58.679Z,8.33
2018-12-03T14:48:27.094Z,7.17
2018-12-03T14:50:55.485Z,7.03
2018-12-03T14:53:23.884Z,9.00
2018-12-03T14:55:52.283Z,10.57
2018-12-03T14:58:21.182Z,10.23
2018-12-03T15:00:49.676Z,10.67
2018-12-03T15:03:18.074Z,10.47
2018-12-03T15:05:47.870Z,11.47
2018-12-03T15:08:16.938Z,12.67
2018-12-03T15:10:45.344Z,10.50
2018-12-03T15:13:13.729Z,10.73
2018-12-03T15:15:42.945Z,9.43
2018-12-03T15:18:11.311Z,10.43
2018-12-03T15:20:39.715Z,10.57
2018-12-03T15:23:08.126Z,8.43
2018-12-03T15:25:36.603Z,9.77
2018-12-03T15:28:04.967Z,9.27
2018-12-03T15:30:33.320Z,8.93
2018-12-03T15:33:01.788Z,9.83
2018-12-03T15:35:30.266Z,10.97
2018-12-03T15:37:58.684Z,14.90
2018-12-03T15:40:27.171Z,14.80
2018-12-03T15:42:55.536Z,17.30
2018-12-03T15:45:23.959Z,15.10
2018-12-03T15:47:52.431Z,16.57
2018-12-03T15:50:20.948Z,20.77
2018-12-03T15:52:49.499Z,16.97
2018-12-03T15:55:17.960Z,15.63
2018-12-03T15:57:46.447Z,15.60
2018-12-03T16:00:14.863Z,14.23
2018-12-03T16:02:43.236Z,14.27
2018-12-03T16:05:15.283Z,13.13
2018-12-03T16:07:43.699Z,14.00
2018-12-03T16:10:13.743Z,13.97
2018-12-03T16:12:43.160Z,12.90
2018-12-03T16:15:11.675Z,12.60
2018-12-03T16:17:40.291Z,14.70
2018-12-03T16:20:09.525Z,13.87
2018-12-03T16:22:37.928Z,11.07
2018-12-03T16:25:07.775Z,12.07
2018-12-03T16:27:36.195Z,12.40
2018-12-03T16:30:08.608Z,13.03
2018-12-03T16:32:37.049Z,12.87
2018-12-03T16:35:05.582Z,11.77
2018-12-03T16:37:33.974Z,12.30
2018-12-03T16:40:02.349Z,11.63
2018-12-03T16:42:30.768Z,14.00
2018-12-03T16:44:59.173Z,13.63
2018-12-03T16:47:27.614Z,11.73
2018-12-03T16:49:56.088Z,12.53
2018-12-03T16:52:24.549Z,11.53
2018-12-03T16:54:52.997Z,12.73
2018-12-03T16:57:21.475Z,13.13
2018-12-03T16:59:49.849Z,12.67
2018-12-03T17:02:18.236Z,11.77
2018-12-03T17:04:46.667Z,10.77
2018-12-03T17:07:15.258Z,11.27
2018-12-03T17:09:43.800Z,11.67
2018-12-03T17:12:12.201Z,10.77
2018-12-03T17:14:40.681Z,12.43
2018-12-03T17:17:09.175Z,10.37
2018-12-03T17:19:37.612Z,13.07
2018-12-03T17:22:15.971Z,12.63
2018-12-03T17:24:45.523Z,11.87
2018-12-03T17:27:13.904Z,12.13
2018-12-03T17:29:42.299Z,11.27
2018-12-03T17:32:10.732Z,13.20
2018-12-03T17:34:39.183Z,13.47
2018-12-03T17:37:07.699Z,13.17
2018-12-03T17:39:36.130Z,13.53
2018-12-03T17:42:04.624Z,11.07
2018-12-03T17:44:33.093Z,14.93
2018-12-03T17:47:01.504Z,12.20
2018-12-03T17:49:29.913Z,13.37
2018-12-03T17:51:58.321Z,12.70
2018-12-03T17:54:26.784Z,11.63
2018-12-03T17:56:55.188Z,13.00
2018-12-03T17:59:23.597Z,12.20
2018-12-03T18:01:52.055Z,10.53
2018-12-03T18:04:20.420Z,10.20
2018-12-03T18:07:20.716Z,11.53
2018-12-03T18:09:50.516Z,11.07
2018-12-03T18:12:18.898Z,11.37
2018-12-03T18:14:47.327Z,12.30
2018-12-03T18:17:15.724Z,11.30
2018-12-03T18:19:44.318Z,11.63
2018-12-03T18:22:12.902Z,12.40
2018-12-03T18:24:41.321Z,11.40
2018-12-03T18:27:09.680Z,11.80
2018-12-03T18:29:38.085Z,13.90
2018-12-03T18:32:06.440Z,11.30
2018-12-03T18:34:34.897Z,10.57
2018-12-03T18:37:03.252Z,11.67
2018-12-03T18:39:31.632Z,10.07
2018-12-03T18:42:00.019Z,10.90
2018-12-03T18:44:28.381Z,9.67
2018-12-03T18:46:56.796Z,10.97
2018-12-03T18:49:30.339Z,10.20
2018-12-03T18:51:58.764Z,9.87
2018-12-03T18:54:27.137Z,10.57
2018-12-03T18:56:55.553Z,9.43
2018-12-03T18:59:23.948Z,9.50
2018-12-03T19:01:52.344Z,9.97
2018-12-03T19:04:20.789Z,9.70
2018-12-03T19:06:49.127Z,9.87
2018-12-03T19:09:17.520Z,9.93
2018-12-03T19:11:45.868Z,9.80
2018-12-03T19:14:14.246Z,11.23
2018-12-03T19:16:42.864Z,11.37
2018-12-03T19:19:11.230Z,11.07
2018-12-03T19:21:39.639Z,11.83
2018-12-03T19:24:08.004Z,13.90
2018-12-03T19:26:36.409Z,13.80
2018-12-03T19:29:04.925Z,15.30
2018-12-03T19:31:33.308Z,14.33
2018-12-03T19:34:01.674Z,15.20
2018-12-03T19:36:30.072Z,14.97
2018-12-03T19:38:58.668Z,13.60
2018-12-03T19:41:27.153Z,14.43
2018-12-03T19:43:55.581Z,13.97
2018-12-03T19:46:23.993Z,12.97
2018-12-03T19:48:52.403Z,14.13
2018-12-03T19:51:20.821Z,14.87
2018-12-03T19:53:49.177Z,15.50
2018-12-03T19:56:17.678Z,14.33
2018-12-03T19:58:48.601Z,14.07
2018-12-03T20:01:17.033Z,14.57
2018-12-03T20:03:45.760Z,15.47
2018-12-03T20:06:14.529Z,13.17
2018-12-03T20:08:42.972Z,15.20
2018-12-03T20:11:11.387Z,15.67
2018-12-03T20:13:39.764Z,18.17
2018-12-03T20:16:08.896Z,17.23
2018-12-03T20:18:37.251Z,16.80
2018-12-03T20:21:09.976Z,17.37
2018-12-03T20:23:41.967Z,17.80
2018-12-03T20:26:24.897Z,18.13
2018-12-03T20:28:57.886Z,18.77
2018-12-03T20:31:40.027Z,16.73
2018-12-03T20:34:16.389Z,17.57
2018-12-03T20:36:54.353Z,17.03
2018-12-03T20:39:34.058Z,17.10
2018-12-03T20:42:03.836Z,17.10
2018-12-03T20:44:38.700Z,16.77
2018-12-03T20:47:17.784Z,17.43
2018-12-03T20:50:01.335Z,16.30
2018-12-03T20:52:31.013Z,18.07
2018-12-03T20:55:10.736Z,17.07
2018-12-03T20:57:39.177Z,20.63
2018-12-03T21:00:08.544Z,24.07
2018-12-03T21:02:36.935Z,22.27
2018-12-03T21:05:05.391Z,26.03
2018-12-03T21:07:33.771Z,26.40
2018-12-03T21:10:02.157Z,22.87
2018-12-03T21:12:30.529Z,26.63
2018-12-03T21:14:58.939Z,26.73
2018-12-03T21:17:27.302Z,31.53
2018-12-03T21:20:00.241Z,30.13
2018-12-03T21:22:28.576Z,25.23
2018-12-03T21:24:56.999Z,25.50
2018-12-03T21:27:25.375Z,27.30
2018-12-03T21:29:53.739Z,9.70
2018-12-03T21:32:22.136Z,10.40
2018-12-03T21:34:50.515Z,4.90
2018-12-03T21:37:18.859Z,3.97
2018-12-03T21:39:48.095Z,3.80
2018-12-03T21:42:16.730Z,4.07
2018-12-03T21:44:45.141Z,4.10
2018-12-03T21:47:13.518Z,3.87
2018-12-03T21:49:41.891Z,3.67
2018-12-03T21:52:10.270Z,3.17
2018-12-03T21:54:38.663Z,2.90
2018-12-03T21:57:10.747Z,3.63
2018-12-03T21:59:37.711Z,3.70
2018-12-03T22:02:06.058Z,4.50
2018-12-03T22:04:34.423Z,4.47
2018-12-03T22:07:02.792Z,4.53
2018-12-03T22:09:31.152Z,4.30
2018-12-03T22:11:59.497Z,3.83
2018-12-03T22:14:27.860Z,3.43
2018-12-03T22:16:56.175Z,4.17
2018-12-03T22:19:24.565Z,3.53
2018-12-03T22:21:52.905Z,3.37
2018-12-03T22:24:21.248Z,3.43
2018-12-03T22:26:49.611Z,2.60
2018-12-03T22:29:17.951Z,3.13
2018-12-03T22:31:46.316Z,2.80
2018-12-03T22:34:14.716Z,3.00
2018-12-03T22:36:43.080Z,2.73
2018-12-03T22:39:11.423Z,2.97
2018-12-03T22:41:39.817Z,3.17
2018-12-03T22:44:08.180Z,4.70
2018-12-03T22:46:36.550Z,3.50
2018-12-03T22:49:04.899Z,2.93
2018-12-03T22:51:33.299Z,2.60
2018-12-03T22:54:01.645Z,2.87
2018-12-03T22:56:30.003Z,2.37
2018-12-03T22:58:58.351Z,2.30
2018-12-03T23:01:26.715Z,2.77
2018-12-03T23:03:55.105Z,3.00
2018-12-03T23:06:23.452Z,2.60
2018-12-03T23:08:51.802Z,2.97
2018-12-03T23:11:20.215Z,2.43
2018-12-03T23:13:48.544Z,2.83
2018-12-03T23:16:16.930Z,3.13
2018-12-03T23:18:45.639Z,3.40
2018-12-03T23:21:14.004Z,2.90
2018-12-03T23:23:42.377Z,3.57
2018-12-03T23:26:10.739Z,1.80
2018-12-03T23:28:39.106Z,3.20
2018-12-03T23:31:07.455Z,2.40
2018-12-03T23:33:35.857Z,2.40
2018-12-03T23:36:04.212Z,2.23
2018-12-03T23:38:32.571Z,2.20
2018-12-03T23:41:00.921Z,2.60
2018-12-03T23:43:29.333Z,2.30
2018-12-03T23:45:57.671Z,2.43
2018-12-03T23:48:26.038Z,2.40
2018-12-03T23:50:54.396Z,2.00
2018-12-03T23:53:22.807Z,2.70
2018-12-03T23:55:51.176Z,2.10
2018-12-03T23:58:19.576Z,1.90
